Sturgeon Bay, WI

9:42 PM CDT on September 30, 2016 (GMT -0500)
Door County Cherryland

Weather History for KSUE - October, 2010

Change the Weather History Date:

Sunday, October 17, 2010

  Actual Average Record
Temperature  
Mean Temperature 52 °F -  
Max Temperature 57 °F 55 °F 78 °F (1947)
Min Temperature 46 °F 39 °F 22 °F (1952)
Degree Days  
Heating Degree Days 14    
Growing Degree Days 2 (Base 50)    
Moisture  
Dew Point 30 °F    
Average Humidity 43    
Maximum Humidity 58    
Minimum Humidity 31    
Precipitation  
Precipitation 0.00 in - - ()
Sea Level Pressure  
Sea Level Pressure 30.07 in    
Wind  
Wind Speed 10 mph (NW)    
Max Wind Speed 14 mph    
Max Gust Speed 18 mph    
Visibility 10 miles    
Events      
Averages and records for this station are not official NWS values.
T = Trace of Precipitation, MM = Missing Value Source: NWS Daily Summary

Daily Weather History Graph

Daily Weather History Graph

Search for Another Location

Airport or City:

Trip Planner

Search our weather history database for the weather conditions in past years. The results will help you decide how hot, cold, wet, or windy it might be!

Date:

Astronomy

Oct. 17, 2010 Rise Set
Actual Time 7:07 AM CDT 6:01 PM CDT
Civil Twilight 6:38 AM CDT 6:31 PM CDT
Nautical Twilight 6:04 AM CDT 7:05 PM CDT
Astronomical Twilight 5:30 AM CDT 7:38 PM CDT
Moon 3:32 PM CDT (10/17) 1:45 AM CDT (10/17)
Length of Visible Light 11h 52m
Length of Day
10h 53m
Waxing Gibbous, 76% of the Moon is Illuminated
Oct 17
Waxing Gibbous
Oct 22
Full
Oct 30
Last Quarter
Nov 5
New
Nov 13
First Quarter

Hourly Weather History & Observations

Time (CDT) Temp. Windchill Dew Point Humidity Pressure Visibility Wind Dir Wind Speed Gust Speed Precip Events Conditions
12:15 AM 53.6 °F - 33.8 °F 47% 30.02 in 10.0 mi NW 8.1 mph - N/A   Clear
12:35 AM 53.6 °F - 32.0 °F 44% 30.02 in 10.0 mi NW 10.4 mph - N/A   Clear
12:55 AM 53.6 °F - 32.0 °F 44% 30.03 in 10.0 mi NW 10.4 mph - N/A   Clear
1:15 AM 51.8 °F - 30.2 °F 44% 30.04 in 10.0 mi NW 10.4 mph - N/A   Clear
1:35 AM 51.8 °F - 30.2 °F 44% 30.03 in 10.0 mi NW 10.4 mph 17.3 mph N/A   Clear
1:55 AM 51.8 °F - 30.2 °F 44% 30.04 in 10.0 mi NW 11.5 mph - N/A   Clear
2:15 AM 51.8 °F - 30.2 °F 44% 30.03 in 10.0 mi NW 12.7 mph - N/A   Clear
2:35 AM 51.8 °F - 30.2 °F 44% 30.03 in 10.0 mi NW 11.5 mph 17.3 mph N/A   Clear
2:55 AM 50.0 °F - 30.2 °F 47% 30.03 in 10.0 mi NW 8.1 mph - N/A   Clear
3:15 AM 50.0 °F - 30.2 °F 47% 30.03 in 10.0 mi NW 9.2 mph 17.3 mph N/A   Clear
3:35 AM 50.0 °F - 30.2 °F 47% 30.03 in 10.0 mi NW 9.2 mph 17.3 mph N/A   Clear
3:55 AM 48.2 °F - 30.2 °F 50% 30.03 in 10.0 mi NW 10.4 mph - N/A   Clear
4:35 AM 48.2 °F - 30.2 °F 50% 30.04 in 10.0 mi NW 9.2 mph - N/A   Clear
4:55 AM 48.2 °F - 30.2 °F 50% 30.05 in 10.0 mi NW 9.2 mph - N/A   Clear
5:15 AM 48.2 °F - 30.2 °F 50% 30.05 in 10.0 mi NW 8.1 mph - N/A   Clear
5:35 AM 48.2 °F - 32.0 °F 54% 30.07 in 10.0 mi NW 8.1 mph - N/A   Clear
5:55 AM 48.2 °F - 32.0 °F 54% 30.07 in 10.0 mi NW 9.2 mph - N/A   Clear
6:15 AM 46.4 °F 43.5 °F 32.0 °F 57% 30.07 in 10.0 mi NW 5.8 mph - N/A   Clear
6:55 AM 48.2 °F - 32.0 °F 54% 30.08 in 10.0 mi NW 10.4 mph - N/A   Clear
8:15 AM 48.2 °F - 32.0 °F 54% 30.11 in 10.0 mi WNW 9.2 mph - N/A   Unknown
8:35 AM 50.0 °F - 33.8 °F 54% 30.11 in 10.0 mi WNW 12.7 mph 18.4 mph N/A   Clear
8:55 AM 48.2 °F - 33.8 °F 58% 30.11 in 10.0 mi WNW 9.2 mph 16.1 mph N/A   Clear
9:15 AM 50.0 °F - 35.6 °F 58% 30.11 in 10.0 mi WNW 10.4 mph - N/A   Clear
9:35 AM 51.8 °F - 35.6 °F 54% 30.11 in 10.0 mi WNW 9.2 mph - N/A   Clear
9:55 AM 51.8 °F - 35.6 °F 54% 30.11 in 10.0 mi NW 11.5 mph - N/A   Clear
10:15 AM 51.8 °F - 33.8 °F 50% 30.11 in 10.0 mi WNW 12.7 mph 16.1 mph N/A   Clear
10:35 AM 51.8 °F - 33.8 °F 50% 30.10 in 10.0 mi NW 11.5 mph - N/A   Clear
10:55 AM 51.8 °F - 32.0 °F 47% 30.11 in 10.0 mi NW 10.4 mph - N/A   Clear
11:15 AM 53.6 °F - 32.0 °F 44% 30.10 in 10.0 mi NW 9.2 mph - N/A   Clear
11:35 AM 53.6 °F - 30.2 °F 41% 30.10 in 10.0 mi NW 6.9 mph - N/A   Clear
11:55 AM 53.6 °F - 28.4 °F 38% 30.11 in 10.0 mi West 9.2 mph - N/A   Clear
12:15 PM 53.6 °F - 28.4 °F 38% 30.10 in 10.0 mi WNW 9.2 mph - N/A   Clear
12:35 PM 53.6 °F - 28.4 °F 38% 30.09 in 10.0 mi WNW 10.4 mph - N/A   Clear
12:55 PM 53.6 °F - 28.4 °F 38% 30.09 in 10.0 mi WNW 10.4 mph - N/A   Clear
1:15 PM 55.4 °F - 28.4 °F 36% 30.08 in 10.0 mi West 13.8 mph - N/A   Clear
1:35 PM 55.4 °F - 28.4 °F 36% 30.08 in 10.0 mi WNW 12.7 mph - N/A   Clear
1:55 PM 55.4 °F - 30.2 °F 38% 30.07 in 10.0 mi West 9.2 mph - N/A   Clear
2:15 PM 55.4 °F - 30.2 °F 38% 30.06 in 10.0 mi WSW 11.5 mph - N/A   Clear
2:35 PM 55.4 °F - 30.2 °F 38% 30.07 in 10.0 mi WSW 8.1 mph - N/A   Clear
2:55 PM 55.4 °F - 28.4 °F 36% 30.07 in 10.0 mi WSW 11.5 mph 17.3 mph N/A   Clear
3:15 PM 57.2 °F - 28.4 °F 33% 30.07 in 10.0 mi WSW 11.5 mph 17.3 mph N/A   Clear
3:35 PM 57.2 °F - 28.4 °F 33% 30.06 in 10.0 mi WSW 11.5 mph - N/A   Clear
3:55 PM 57.2 °F - 30.2 °F 36% 30.06 in 10.0 mi WSW 10.4 mph - N/A   Clear
4:15 PM 57.2 °F - 30.2 °F 36% 30.05 in 10.0 mi WSW 10.4 mph - N/A   Clear
4:35 PM 57.2 °F - 26.6 °F 31% 30.05 in 10.0 mi West 8.1 mph - N/A   Clear
4:55 PM 57.2 °F - 28.4 °F 33% 30.05 in 10.0 mi West 6.9 mph - N/A   Clear
5:15 PM 55.4 °F - 26.6 °F 33% 30.05 in 10.0 mi WNW 5.8 mph - N/A   Clear
5:35 PM 55.4 °F - 26.6 °F 33% 30.04 in 10.0 mi WNW 6.9 mph - N/A   Clear
5:55 PM 53.6 °F - 28.4 °F 38% 30.05 in 10.0 mi West 3.5 mph - N/A   Clear
6:15 PM 53.6 °F - 28.4 °F 38% 30.05 in 10.0 mi WNW 4.6 mph - N/A   Clear
6:35 PM 53.6 °F - 28.4 °F 38% 30.05 in 10.0 mi WNW 4.6 mph - N/A   Clear
6:55 PM 53.6 °F - 28.4 °F 38% 30.05 in 10.0 mi WNW 4.6 mph - N/A   Clear
7:15 PM 53.6 °F - 30.2 °F 41% 30.05 in 10.0 mi NNW 5.8 mph - N/A   Clear
7:35 PM 53.6 °F - 28.4 °F 38% 30.06 in 10.0 mi NNW 6.9 mph - N/A   Clear
7:55 PM 53.6 °F - 30.2 °F 41% 30.06 in 10.0 mi NNW 6.9 mph - N/A   Clear
8:15 PM 53.6 °F - 30.2 °F 41% 30.06 in 10.0 mi North 10.4 mph - N/A   Clear
8:35 PM 51.8 °F - 30.2 °F 44% 30.07 in 10.0 mi North 10.4 mph - N/A   Clear
8:55 PM 51.8 °F - 28.4 °F 41% 30.07 in 10.0 mi North 11.5 mph - N/A   Clear
9:15 PM 51.8 °F - 26.6 °F 38% 30.08 in 10.0 mi North 11.5 mph - N/A   Clear
9:35 PM 51.8 °F - 28.4 °F 41% 30.09 in 10.0 mi North 9.2 mph - N/A   Clear
9:55 PM 51.8 °F - 24.8 °F 35% 30.09 in 10.0 mi North 11.5 mph - N/A   Clear
10:15 PM 51.8 °F - 26.6 °F 38% 30.09 in 10.0 mi North 11.5 mph - N/A   Clear
10:35 PM 50.0 °F - 26.6 °F 40% 30.09 in 10.0 mi North 11.5 mph - N/A   Clear
10:55 PM 50.0 °F - 26.6 °F 40% 30.09 in 10.0 mi North 8.1 mph - N/A   Clear
11:15 PM 48.2 °F - 26.6 °F 43% 30.10 in 10.0 mi NNE 5.8 mph - N/A   Clear
11:35 PM 48.2 °F - 28.4 °F 46% 30.09 in 10.0 mi NNE 6.9 mph - N/A   Clear
11:55 PM 48.2 °F - 28.4 °F 46% 30.09 in 10.0 mi North 4.6 mph - N/A   Clear